Preview of NWS' New Version of Forecast
This preview is not operational and should not be used for support decisions.

Terminal Aerodrome Forecast (TAF)

Issued by National Weather Service (NWS)

                            
252 
FTUS42 KMFL 231514 AAA
TAFMIA
TAF AMD
KMIA 231514Z 2315/2418 11013G23KT P6SM SCT035 SCT100
     FM240000 10007KT P6SM FEW025 SCT040
     FM241400 11015G25KT P6SM FEW030 SCT040=